createdAt,value
2022-07-25T00:00:47.932Z,63.80
2022-07-25T00:03:16.827Z,63.52
2022-07-25T00:05:47.607Z,64.75
2022-07-25T00:08:16.265Z,65.17
2022-07-25T00:10:45.147Z,65.94
2022-07-25T00:13:13.878Z,64.46
2022-07-25T00:15:42.611Z,63.00
2022-07-25T00:18:11.393Z,64.43
2022-07-25T00:20:40.039Z,64.20
2022-07-25T00:23:09.421Z,63.79
2022-07-25T00:25:38.056Z,64.64
2022-07-25T00:28:06.764Z,65.45
2022-07-25T00:30:34.582Z,65.57
2022-07-25T00:33:03.117Z,65.00
2022-07-25T00:35:31.742Z,65.99
2022-07-25T00:37:59.562Z,66.51
2022-07-25T00:40:28.184Z,65.75
2022-07-25T00:42:56.873Z,66.06
2022-07-25T00:45:25.395Z,65.57
2022-07-25T00:47:54.171Z,68.13
2022-07-25T00:50:23.368Z,67.95
2022-07-25T00:52:52.520Z,65.24
2022-07-25T00:55:22.547Z,64.60
2022-07-25T00:57:52.238Z,66.44
2022-07-25T01:00:21.031Z,67.67
2022-07-25T01:02:49.030Z,68.92
2022-07-25T01:05:19.663Z,68.71
2022-07-25T01:07:48.607Z,68.12
2022-07-25T01:10:17.319Z,69.83
2022-07-25T01:12:56.474Z,69.55
2022-07-25T01:15:27.303Z,68.44
2022-07-25T01:17:56.575Z,69.02
2022-07-25T01:20:29.140Z,67.42
2022-07-25T01:22:58.586Z,67.93
2022-07-25T01:25:28.473Z,69.53
2022-07-25T01:27:58.058Z,69.38
2022-07-25T01:30:26.997Z,69.76
2022-07-25T01:32:55.699Z,71.08
2022-07-25T01:35:24.597Z,70.13
2022-07-25T01:37:53.250Z,70.56
2022-07-25T01:40:22.040Z,72.13
2022-07-25T01:42:49.844Z,72.96
2022-07-25T01:45:18.570Z,73.11
2022-07-25T01:47:47.218Z,72.87
2022-07-25T01:50:15.999Z,73.24
2022-07-25T01:52:44.763Z,73.06
2022-07-25T01:55:13.586Z,72.88
2022-07-25T01:57:49.468Z,73.35
2022-07-25T02:00:19.073Z,73.12
2022-07-25T02:02:47.758Z,72.38
2022-07-25T02:05:16.690Z,73.00
2022-07-25T02:07:45.337Z,72.46
2022-07-25T02:10:14.872Z,72.13
2022-07-25T02:12:43.494Z,72.84
2022-07-25T02:15:12.575Z,73.22
2022-07-25T02:17:41.226Z,73.00
2022-07-25T02:20:11.156Z,73.53
2022-07-25T02:22:39.889Z,72.73
2022-07-25T02:25:09.166Z,73.61
2022-07-25T02:27:38.303Z,73.35
2022-07-25T02:30:09.039Z,71.36
2022-07-25T02:32:37.974Z,71.18
2022-07-25T02:35:12.933Z,72.42
2022-07-25T02:37:42.816Z,71.26
2022-07-25T02:40:12.601Z,70.84
2022-07-25T02:42:42.103Z,70.48
2022-07-25T02:45:11.138Z,70.68
2022-07-25T02:47:39.903Z,71.79
2022-07-25T02:50:09.395Z,73.30
2022-07-25T02:52:44.451Z,73.74
2022-07-25T02:55:12.483Z,74.71
2022-07-25T02:57:41.084Z,73.80
2022-07-25T03:00:11.259Z,74.16
2022-07-25T03:02:40.129Z,73.83
2022-07-25T03:05:15.531Z,74.08
2022-07-25T03:07:46.166Z,74.16
2022-07-25T03:10:16.094Z,75.29
2022-07-25T03:12:45.779Z,74.62
2022-07-25T03:15:14.931Z,75.85
2022-07-25T03:17:44.070Z,76.79
2022-07-25T03:20:13.748Z,75.31
2022-07-25T03:22:42.550Z,73.49
2022-07-25T03:25:15.837Z,72.68
2022-07-25T03:27:50.922Z,72.73
2022-07-25T03:30:20.818Z,74.62
2022-07-25T03:32:50.360Z,73.16
2022-07-25T03:35:19.032Z,72.59
2022-07-25T03:37:47.813Z,71.45
2022-07-25T03:40:16.463Z,73.02
2022-07-25T03:42:45.949Z,73.77
2022-07-25T03:45:14.657Z,72.60
2022-07-25T03:47:43.274Z,73.07
2022-07-25T03:50:13.022Z,73.33
2022-07-25T03:52:41.728Z,71.22
2022-07-25T03:55:12.227Z,69.89
2022-07-25T03:57:41.136Z,71.76
2022-07-25T04:00:12.651Z,71.43
2022-07-25T04:02:41.644Z,71.63
2022-07-25T04:05:11.610Z,71.31
2022-07-25T04:07:40.282Z,69.52
2022-07-25T04:10:09.449Z,68.92
2022-07-25T04:12:39.102Z,69.89
2022-07-25T04:15:08.868Z,69.48
2022-07-25T04:17:38.865Z,67.74
2022-07-25T04:20:09.122Z,67.62
2022-07-25T04:22:37.172Z,67.09
2022-07-25T04:25:07.648Z,66.82
2022-07-25T04:27:36.293Z,66.64
2022-07-25T04:30:05.605Z,66.98
2022-07-25T04:32:34.208Z,65.07
2022-07-25T04:35:02.837Z,65.88
2022-07-25T04:37:30.542Z,64.41
2022-07-25T04:39:59.161Z,63.91
2022-07-25T04:42:28.134Z,63.58
2022-07-25T04:44:56.794Z,63.89
2022-07-25T04:47:25.444Z,64.15
2022-07-25T04:49:55.331Z,62.92
2022-07-25T04:52:23.930Z,62.04
2022-07-25T04:54:52.605Z,62.25
2022-07-25T04:57:21.411Z,62.63
2022-07-25T04:59:50.013Z,62.47
2022-07-25T05:02:19.503Z,62.18
2022-07-25T05:04:48.222Z,61.59
2022-07-25T05:07:20.854Z,61.76
2022-07-25T05:09:48.605Z,61.12
2022-07-25T05:12:16.412Z,60.96
2022-07-25T05:14:45.686Z,60.36
2022-07-25T05:17:14.507Z,60.54
2022-07-25T05:19:43.095Z,60.35
2022-07-25T05:22:11.704Z,58.47
2022-07-25T05:24:40.347Z,59.19
2022-07-25T05:27:08.941Z,58.49
2022-07-25T05:29:37.600Z,57.60
2022-07-25T05:32:06.577Z,57.76
2022-07-25T05:34:35.293Z,57.04
2022-07-25T05:37:03.859Z,56.34
2022-07-25T05:39:32.467Z,56.09
2022-07-25T05:42:01.090Z,55.66
2022-07-25T05:44:29.689Z,55.00
2022-07-25T05:46:58.439Z,54.85
2022-07-25T05:49:27.265Z,55.31
2022-07-25T05:51:55.883Z,53.64
2022-07-25T05:54:24.557Z,51.59
2022-07-25T05:56:56.182Z,51.74
2022-07-25T05:59:24.827Z,51.32
2022-07-25T06:01:53.750Z,49.35
2022-07-25T06:04:27.005Z,49.86
2022-07-25T06:06:56.190Z,49.51
2022-07-25T06:09:25.303Z,48.82
2022-07-25T06:12:00.116Z,47.75
2022-07-25T06:14:30.455Z,47.01
2022-07-25T06:16:59.278Z,47.91
2022-07-25T06:19:27.985Z,46.62
2022-07-25T06:21:56.598Z,47.18
2022-07-25T06:24:25.251Z,46.57
2022-07-25T06:26:53.858Z,46.28
2022-07-25T06:29:22.432Z,46.09
2022-07-25T06:31:51.184Z,46.30
2022-07-25T06:34:19.898Z,45.90
2022-07-25T06:36:48.617Z,45.06
2022-07-25T06:39:17.227Z,44.89
2022-07-25T06:41:45.687Z,44.16
2022-07-25T06:44:14.295Z,44.78
2022-07-25T06:46:42.899Z,44.24
2022-07-25T06:49:11.690Z,44.18
2022-07-25T06:51:40.307Z,42.59
2022-07-25T06:54:09.399Z,42.73
2022-07-25T06:56:38.398Z,41.55
2022-07-25T06:59:06.859Z,40.92
2022-07-25T07:01:35.616Z,40.63
2022-07-25T07:04:05.121Z,39.62
2022-07-25T07:06:34.042Z,38.94
2022-07-25T07:09:02.524Z,39.38
2022-07-25T07:11:31.147Z,38.57
2022-07-25T07:13:59.655Z,39.47
2022-07-25T07:16:28.540Z,37.91
2022-07-25T07:18:57.821Z,38.32
2022-07-25T07:21:26.572Z,37.44
2022-07-25T07:23:55.080Z,36.95
2022-07-25T07:26:25.538Z,36.78
2022-07-25T07:28:55.347Z,36.67
2022-07-25T07:31:24.118Z,36.48
2022-07-25T07:33:52.810Z,35.28
2022-07-25T07:36:22.390Z,35.93
2022-07-25T07:38:50.899Z,35.74
2022-07-25T07:41:19.805Z,35.42
2022-07-25T07:43:48.538Z,36.05
2022-07-25T07:46:17.036Z,37.77
2022-07-25T07:48:45.624Z,35.13
2022-07-25T07:51:14.089Z,33.87
2022-07-25T07:54:04.167Z,33.39
2022-07-25T07:56:32.742Z,33.37
2022-07-25T07:59:01.514Z,32.77
2022-07-25T08:01:30.122Z,32.05
2022-07-25T08:03:58.785Z,33.16
2022-07-25T08:06:28.074Z,32.09
2022-07-25T08:08:56.601Z,32.23
2022-07-25T08:11:26.522Z,32.02
2022-07-25T08:13:55.041Z,32.17
2022-07-25T08:16:23.517Z,32.66
2022-07-25T08:18:52.044Z,31.41
2022-07-25T08:21:20.461Z,31.02
2022-07-25T08:23:48.928Z,31.02
2022-07-25T08:26:17.433Z,31.17
2022-07-25T08:28:46.444Z,31.25
2022-07-25T08:31:15.780Z,31.04
2022-07-25T08:33:44.270Z,29.72
2022-07-25T08:36:12.781Z,29.97
2022-07-25T08:38:41.228Z,30.81
2022-07-25T08:41:09.795Z,30.83
2022-07-25T08:43:39.618Z,31.07
2022-07-25T08:46:08.470Z,29.62
2022-07-25T08:48:39.125Z,30.53
2022-07-25T08:51:08.234Z,30.67
2022-07-25T08:53:37.980Z,29.98
2022-07-25T08:56:14.543Z,29.05
2022-07-25T08:58:44.777Z,30.13
2022-07-25T09:01:14.444Z,30.18
2022-07-25T09:03:44.374Z,28.59
2022-07-25T09:06:22.302Z,29.56
2022-07-25T09:09:00.538Z,29.40
2022-07-25T09:11:36.999Z,29.54
2022-07-25T09:14:11.328Z,29.40
2022-07-25T09:16:46.843Z,29.32
2022-07-25T09:19:22.495Z,29.33
2022-07-25T09:22:07.423Z,29.74
2022-07-25T09:24:46.242Z,31.16
2022-07-25T09:27:17.721Z,29.43
2022-07-25T09:29:46.370Z,30.93
2022-07-25T09:32:22.365Z,30.29
2022-07-25T09:34:52.142Z,28.61
2022-07-25T09:37:27.412Z,29.63
2022-07-25T09:39:55.858Z,30.42
2022-07-25T09:42:29.570Z,30.56
2022-07-25T09:45:14.719Z,31.36
2022-07-25T09:48:00.913Z,31.32
2022-07-25T09:50:33.098Z,31.23
2022-07-25T09:53:03.391Z,30.94
2022-07-25T09:55:32.380Z,31.41
2022-07-25T09:58:00.932Z,31.80
2022-07-25T10:00:33.828Z,30.88
2022-07-25T10:03:29.884Z,30.97
2022-07-25T10:06:36.730Z,29.04
2022-07-25T10:09:13.170Z,29.44
2022-07-25T10:12:05.744Z,28.93
2022-07-25T10:14:36.515Z,28.95
2022-07-25T10:17:06.131Z,29.01
2022-07-25T10:19:50.219Z,28.84
2022-07-25T10:22:46.344Z,29.06
2022-07-25T10:25:19.464Z,28.41
2022-07-25T10:28:01.275Z,28.88
2022-07-25T10:30:38.676Z,27.50
2022-07-25T10:33:19.000Z,27.46
2022-07-25T10:35:47.626Z,28.10
2022-07-25T10:38:28.358Z,28.22
2022-07-25T10:40:57.686Z,27.97
2022-07-25T10:43:28.218Z,28.75
2022-07-25T10:46:00.534Z,28.63
2022-07-25T10:48:33.480Z,28.98
2022-07-25T10:51:12.797Z,28.61
2022-07-25T10:53:44.805Z,27.86
2022-07-25T10:56:29.207Z,27.03
2022-07-25T10:59:03.108Z,28.69
2022-07-25T11:01:37.014Z,28.61
2022-07-25T11:04:16.040Z,28.04
2022-07-25T11:06:44.555Z,26.82
2022-07-25T11:09:25.027Z,27.12
2022-07-25T11:12:00.422Z,27.78
2022-07-25T11:14:34.129Z,27.63
2022-07-25T11:17:23.984Z,26.76
2022-07-25T11:20:05.898Z,26.76
2022-07-25T11:22:35.608Z,26.81
2022-07-25T11:25:14.906Z,26.82
2022-07-25T11:27:43.587Z,24.80
2022-07-25T11:30:14.225Z,26.24
2022-07-25T11:32:54.675Z,26.12
2022-07-25T11:35:30.214Z,26.02
2022-07-25T11:38:03.428Z,25.29
2022-07-25T11:40:32.870Z,25.28
2022-07-25T11:43:01.632Z,24.58
2022-07-25T11:45:35.055Z,24.60
2022-07-25T11:48:09.052Z,25.66
2022-07-25T11:50:44.706Z,25.31
2022-07-25T11:53:18.479Z,24.35
2022-07-25T11:55:47.483Z,23.99
2022-07-25T11:58:18.425Z,23.65
2022-07-25T12:00:50.154Z,23.55
2022-07-25T12:03:23.447Z,23.26
2022-07-25T12:05:52.253Z,23.37
2022-07-25T12:08:24.014Z,23.52
2022-07-25T12:10:52.546Z,24.08
2022-07-25T12:13:32.762Z,24.77
2022-07-25T12:16:01.449Z,26.35
2022-07-25T12:18:30.101Z,25.02
2022-07-25T12:20:58.836Z,25.08
2022-07-25T12:23:27.329Z,24.76
2022-07-25T12:25:55.900Z,25.60
2022-07-25T12:28:24.474Z,26.21
2022-07-25T12:30:56.550Z,26.19
2022-07-25T12:33:25.972Z,26.30
2022-07-25T12:35:54.547Z,25.94
2022-07-25T12:38:23.031Z,25.73
2022-07-25T12:40:52.329Z,25.75
2022-07-25T12:43:21.407Z,25.89
2022-07-25T12:45:50.306Z,25.63
2022-07-25T12:48:18.886Z,24.76
2022-07-25T12:50:48.420Z,24.50
2022-07-25T12:53:16.889Z,23.50
2022-07-25T12:55:45.358Z,24.01
2022-07-25T12:58:15.284Z,23.57
2022-07-25T13:00:44.654Z,23.62
2022-07-25T13:03:14.745Z,23.73
2022-07-25T13:05:43.324Z,23.24
2022-07-25T13:08:11.755Z,22.66
2022-07-25T13:10:40.246Z,23.13
2022-07-25T13:13:08.655Z,24.08
2022-07-25T13:15:37.302Z,23.90
2022-07-25T13:18:06.296Z,24.01
2022-07-25T13:20:37.590Z,23.35
2022-07-25T13:23:06.448Z,23.47
2022-07-25T13:25:36.165Z,24.58
2022-07-25T13:28:08.513Z,23.94
2022-07-25T13:30:39.736Z,25.15
2022-07-25T13:33:10.134Z,24.86
2022-07-25T13:35:39.605Z,23.93
2022-07-25T13:38:11.527Z,24.25
2022-07-25T13:40:43.529Z,24.75
2022-07-25T13:43:14.265Z,23.35
2022-07-25T13:45:43.741Z,23.98
2022-07-25T13:48:28.830Z,23.90
2022-07-25T13:50:59.379Z,24.15
2022-07-25T13:53:30.489Z,24.36
2022-07-25T13:56:00.821Z,24.56
2022-07-25T13:58:30.063Z,23.66
2022-07-25T14:00:58.941Z,24.57
2022-07-25T14:03:27.417Z,24.82
2022-07-25T14:05:55.907Z,24.01
2022-07-25T14:08:26.447Z,24.95
2022-07-25T14:10:55.088Z,24.46
2022-07-25T14:13:23.685Z,25.23
2022-07-25T14:15:52.511Z,24.37
2022-07-25T14:18:21.317Z,24.75
2022-07-25T14:20:50.801Z,24.24
2022-07-25T14:23:19.922Z,24.93
2022-07-25T14:25:48.356Z,24.19
2022-07-25T14:28:16.910Z,23.70
2022-07-25T14:30:45.403Z,24.25
2022-07-25T14:33:13.957Z,24.26
2022-07-25T14:35:42.466Z,24.29
2022-07-25T14:38:11.502Z,24.20
2022-07-25T14:40:39.971Z,23.85
2022-07-25T14:43:08.669Z,24.12
2022-07-25T14:45:37.275Z,23.89
2022-07-25T14:48:08.553Z,23.38
2022-07-25T14:50:37.013Z,22.88
2022-07-25T14:53:05.394Z,23.70
2022-07-25T14:55:33.829Z,23.09
2022-07-25T14:58:03.859Z,22.50
2022-07-25T15:00:33.962Z,23.13
2022-07-25T15:03:02.543Z,23.13
2022-07-25T15:05:31.098Z,23.44
2022-07-25T15:07:59.493Z,23.50
2022-07-25T15:10:27.979Z,22.02
2022-07-25T15:13:13.936Z,22.72
2022-07-25T15:15:45.261Z,22.50
2022-07-25T15:18:14.922Z,23.07
2022-07-25T15:20:43.443Z,23.01
2022-07-25T15:23:11.982Z,22.74
2022-07-25T15:28:29.382Z,21.92
2022-07-25T15:30:57.854Z,21.61
2022-07-25T15:33:26.457Z,21.76
2022-07-25T15:35:55.507Z,20.98
2022-07-25T15:38:25.305Z,21.66
2022-07-25T15:40:53.821Z,22.75
2022-07-25T15:43:22.291Z,22.93
2022-07-25T15:45:51.253Z,21.34
2022-07-25T15:48:20.054Z,21.51
2022-07-25T15:50:51.869Z,22.08
2022-07-25T15:53:20.418Z,22.49
2022-07-25T15:55:50.855Z,22.29
2022-07-25T15:58:19.314Z,21.47
2022-07-25T16:00:49.061Z,21.26
2022-07-25T16:03:17.647Z,21.07
2022-07-25T16:05:46.100Z,21.50
2022-07-25T16:08:14.484Z,21.44
2022-07-25T16:10:43.035Z,20.66
2022-07-25T16:13:11.515Z,21.58
2022-07-25T16:15:40.304Z,20.78
2022-07-25T16:18:08.766Z,20.73
2022-07-25T16:20:37.340Z,20.14
2022-07-25T16:23:05.840Z,20.31
2022-07-25T16:25:34.412Z,20.32
2022-07-25T16:28:02.817Z,21.21
2022-07-25T16:30:31.264Z,20.65
2022-07-25T16:32:59.777Z,20.65
2022-07-25T16:35:28.264Z,20.96
2022-07-25T16:37:56.669Z,20.32
2022-07-25T16:40:30.247Z,21.06
2022-07-25T16:42:59.957Z,21.35
2022-07-25T16:45:29.454Z,21.56
2022-07-25T16:47:58.030Z,20.96
2022-07-25T16:50:26.523Z,20.13
2022-07-25T16:52:55.018Z,20.72
2022-07-25T16:55:23.574Z,20.15
2022-07-25T16:57:52.023Z,20.81
2022-07-25T17:00:21.075Z,20.80
2022-07-25T17:02:49.913Z,21.36
2022-07-25T17:05:18.774Z,20.71
2022-07-25T17:07:58.682Z,21.22
2022-07-25T17:10:30.097Z,21.23
2022-07-25T17:12:58.631Z,21.69
2022-07-25T17:15:28.649Z,21.80
2022-07-25T17:17:57.111Z,21.19
2022-07-25T17:20:25.998Z,22.90
2022-07-25T17:22:55.255Z,23.37
2022-07-25T17:25:23.747Z,22.80
2022-07-25T17:27:52.274Z,22.43
2022-07-25T17:30:20.800Z,22.91
2022-07-25T17:32:49.301Z,23.94
2022-07-25T17:35:18.552Z,23.94
2022-07-25T17:37:47.474Z,23.94
2022-07-25T17:40:16.970Z,23.66
2022-07-25T17:42:47.533Z,25.02
2022-07-25T17:45:17.199Z,25.77
2022-07-25T17:47:45.981Z,25.79
2022-07-25T17:50:16.999Z,26.41
2022-07-25T17:52:45.734Z,26.84
2022-07-25T17:55:14.392Z,27.04
2022-07-25T17:57:44.348Z,26.63
2022-07-25T18:00:14.805Z,27.27
2022-07-25T18:02:43.471Z,28.87
2022-07-25T18:05:13.640Z,29.46
2022-07-25T18:07:45.409Z,28.88
2022-07-25T18:10:14.669Z,30.01
2022-07-25T18:12:43.555Z,31.05
2022-07-25T18:15:15.062Z,31.77
2022-07-25T18:17:46.194Z,31.57
2022-07-25T18:20:16.643Z,32.48
2022-07-25T18:22:45.642Z,32.34
2022-07-25T18:25:15.770Z,33.48
2022-07-25T18:27:47.771Z,33.54
2022-07-25T18:30:17.081Z,33.24
2022-07-25T18:32:46.001Z,34.38
2022-07-25T18:35:15.452Z,34.66
2022-07-25T18:37:45.349Z,34.47
2022-07-25T18:40:14.908Z,35.46
2022-07-25T18:42:43.485Z,35.08
2022-07-25T18:45:13.425Z,36.76
2022-07-25T18:47:42.163Z,35.64
2022-07-25T18:50:12.750Z,35.29
2022-07-25T18:52:42.278Z,39.25
2022-07-25T18:55:13.414Z,39.59
2022-07-25T18:57:41.997Z,40.13
2022-07-25T19:00:11.292Z,40.90
2022-07-25T19:02:39.880Z,42.12
2022-07-25T19:05:09.219Z,41.99
2022-07-25T19:07:40.223Z,42.94
2022-07-25T19:10:10.139Z,42.39
2022-07-25T19:12:39.984Z,42.36
2022-07-25T19:15:09.271Z,43.32
2022-07-25T19:17:37.871Z,44.17
2022-07-25T19:20:07.846Z,42.78
2022-07-25T19:22:36.329Z,44.30
2022-07-25T19:25:08.617Z,43.06
2022-07-25T19:27:39.132Z,43.26
2022-07-25T19:30:16.848Z,44.44
2022-07-25T19:32:46.535Z,46.14
2022-07-25T19:35:26.295Z,46.66
2022-07-25T19:37:56.048Z,46.74
2022-07-25T19:40:25.640Z,46.47
2022-07-25T19:42:56.475Z,45.54
2022-07-25T19:45:25.506Z,46.51
2022-07-25T19:47:54.347Z,47.39
2022-07-25T19:50:22.821Z,46.36
2022-07-25T19:52:51.487Z,47.24
2022-07-25T19:55:20.421Z,48.08
2022-07-25T19:57:49.226Z,48.50
2022-07-25T20:07:52.624Z,48.74
2022-07-25T20:10:21.992Z,49.10
2022-07-25T20:12:50.528Z,49.88
2022-07-25T20:15:19.046Z,52.38
2022-07-25T20:17:50.291Z,52.27
2022-07-25T20:20:18.791Z,52.38
2022-07-25T20:22:50.541Z,51.98
2022-07-25T20:25:21.926Z,51.49
2022-07-25T20:27:50.384Z,51.84
2022-07-25T20:30:19.727Z,51.49
2022-07-25T20:32:48.463Z,52.77
2022-07-25T20:35:16.917Z,51.84
2022-07-25T20:37:46.514Z,52.57
2022-07-25T20:40:16.298Z,52.28
2022-07-25T20:42:45.806Z,51.94
2022-07-25T20:45:15.396Z,52.42
2022-07-25T20:47:44.920Z,51.74
2022-07-25T20:50:14.482Z,52.24
2022-07-25T20:52:43.027Z,53.07
2022-07-25T20:55:11.522Z,53.18
2022-07-25T20:57:41.074Z,52.30
2022-07-25T21:00:11.053Z,51.55
2022-07-25T21:02:40.908Z,52.29
2022-07-25T21:05:10.606Z,53.02
2022-07-25T21:07:40.101Z,51.27
2022-07-25T21:10:10.200Z,51.78
2022-07-25T21:12:38.929Z,52.81
2022-07-25T21:15:09.215Z,52.31
2022-07-25T21:17:38.815Z,52.44
2022-07-25T21:20:08.859Z,52.90
2022-07-25T21:22:41.194Z,53.61
2022-07-25T21:25:10.991Z,53.72
2022-07-25T21:27:40.601Z,52.51
2022-07-25T21:30:11.910Z,53.75
2022-07-25T21:32:41.664Z,55.22
2022-07-25T21:35:11.283Z,54.58
2022-07-25T21:37:40.149Z,54.92
2022-07-25T21:40:10.130Z,54.48
2022-07-25T21:42:38.775Z,55.42
2022-07-25T21:45:08.937Z,54.99
2022-07-25T21:47:37.485Z,55.91
2022-07-25T21:50:25.233Z,56.21
2022-07-25T21:52:55.538Z,56.20
2022-07-25T21:55:23.570Z,55.28
2022-07-25T21:57:53.099Z,56.68
2022-07-25T22:00:23.319Z,56.60
2022-07-25T22:02:51.916Z,56.63
2022-07-25T22:05:20.551Z,56.81
2022-07-25T22:07:49.713Z,55.98
2022-07-25T22:10:22.492Z,56.43
2022-07-25T22:12:50.891Z,57.10
2022-07-25T22:15:19.440Z,56.47
2022-07-25T22:17:49.762Z,54.31
2022-07-25T22:20:20.603Z,54.78
2022-07-25T22:22:49.873Z,54.74
2022-07-25T22:25:18.294Z,55.63
2022-07-25T22:27:46.797Z,56.57
2022-07-25T22:30:19.080Z,57.24
2022-07-25T22:32:50.941Z,57.75
2022-07-25T22:35:19.847Z,58.36
2022-07-25T22:37:47.639Z,57.72
2022-07-25T22:40:16.241Z,57.40
2022-07-25T22:42:45.777Z,57.10
2022-07-25T22:45:14.387Z,58.07
2022-07-25T22:47:42.869Z,58.74
2022-07-25T22:50:12.435Z,58.51
2022-07-25T22:52:42.276Z,57.82
2022-07-25T22:55:11.460Z,56.57
2022-07-25T22:57:39.176Z,57.68
2022-07-25T23:00:12.044Z,57.59
2022-07-25T23:02:41.394Z,58.18
2022-07-25T23:05:10.424Z,57.62
2022-07-25T23:07:40.578Z,58.16
2022-07-25T23:10:10.364Z,56.34
2022-07-25T23:12:40.049Z,57.17
2022-07-25T23:15:10.187Z,57.31
2022-07-25T23:17:38.863Z,57.77
2022-07-25T23:20:09.917Z,57.17
2022-07-25T23:22:38.378Z,57.77
2022-07-25T23:25:10.663Z,59.25
2022-07-25T23:27:39.288Z,59.00
2022-07-25T23:30:09.365Z,58.62
2022-07-25T23:32:40.811Z,59.02
2022-07-25T23:35:10.726Z,59.36
2022-07-25T23:37:39.605Z,58.92
2022-07-25T23:40:10.186Z,57.96
2022-07-25T23:42:37.956Z,58.09
2022-07-25T23:45:08.725Z,58.35
2022-07-25T23:47:41.355Z,57.47
2022-07-25T23:50:12.675Z,57.76
2022-07-25T23:52:40.567Z,57.31
2022-07-25T23:55:09.948Z,57.68
2022-07-25T23:57:39.912Z,57.94
